createdAt,value
2019-05-25T00:00:52.879Z,31.40
2019-05-25T00:03:45.809Z,31.40
2019-05-25T00:06:38.908Z,31.40
2019-05-25T00:09:31.914Z,31.50
2019-05-25T00:12:24.857Z,31.50
2019-05-25T00:15:19.069Z,31.50
2019-05-25T00:18:12.100Z,31.50
2019-05-25T00:21:04.998Z,31.50
2019-05-25T00:24:11.185Z,31.50
2019-05-25T00:26:51.490Z,31.60
2019-05-25T00:29:45.581Z,31.60
2019-05-25T00:32:37.953Z,31.60
2019-05-25T00:35:30.700Z,31.60
2019-05-25T00:38:25.607Z,31.70
2019-05-25T00:41:19.585Z,31.60
2019-05-25T00:44:13.142Z,31.70
2019-05-25T00:47:06.310Z,31.70
2019-05-25T00:49:59.601Z,31.70
2019-05-25T00:52:53.135Z,31.80
2019-05-25T00:55:47.926Z,31.90
2019-05-25T00:58:41.582Z,32.00
2019-05-25T01:01:35.024Z,32.00
2019-05-25T01:04:28.040Z,32.00
2019-05-25T01:07:21.120Z,32.10
2019-05-25T01:10:15.523Z,32.10
2019-05-25T01:13:08.588Z,32.10
2019-05-25T01:16:02.599Z,32.10
2019-05-25T01:18:59.040Z,32.10
2019-05-25T01:21:54.060Z,32.10
2019-05-25T01:24:48.369Z,32.10
2019-05-25T01:27:41.512Z,32.20
2019-05-25T01:30:35.321Z,32.10
2019-05-25T01:33:28.790Z,32.10
2019-05-25T01:36:22.585Z,32.00
2019-05-25T01:39:16.387Z,32.00
2019-05-25T01:42:09.730Z,32.00
2019-05-25T01:45:02.554Z,32.00
2019-05-25T01:47:57.210Z,32.00
2019-05-25T01:50:50.121Z,32.00
2019-05-25T01:53:43.343Z,32.00
2019-05-25T01:56:36.696Z,32.00
2019-05-25T01:59:30.433Z,32.00
2019-05-25T02:02:23.197Z,32.00
2019-05-25T02:05:16.844Z,32.00
2019-05-25T02:08:09.947Z,32.10
2019-05-25T02:11:02.760Z,32.10
2019-05-25T02:13:57.058Z,32.10
2019-05-25T02:16:49.828Z,32.10
2019-05-25T02:19:42.913Z,32.00
2019-05-25T02:22:35.975Z,32.10
2019-05-25T02:25:30.313Z,32.10
2019-05-25T02:28:22.621Z,32.10
2019-05-25T02:31:16.996Z,32.10
2019-05-25T02:34:10.720Z,32.10
2019-05-25T02:37:04.509Z,32.10
2019-05-25T02:39:57.487Z,32.10
2019-05-25T02:42:50.195Z,32.10
2019-05-25T02:45:43.263Z,32.10
2019-05-25T02:48:36.214Z,32.10
2019-05-25T02:51:30.487Z,32.10
2019-05-25T02:54:23.169Z,32.10
2019-05-25T02:57:16.027Z,32.10
2019-05-25T03:00:09.849Z,32.10
2019-05-25T03:03:04.775Z,32.10
2019-05-25T03:05:58.524Z,32.10
2019-05-25T03:08:51.638Z,32.10
2019-05-25T03:11:44.465Z,32.10
2019-05-25T03:14:36.974Z,32.20
2019-05-25T03:17:30.259Z,32.20
2019-05-25T03:20:23.899Z,32.20
2019-05-25T03:23:17.569Z,32.20
2019-05-25T03:26:10.667Z,32.20
2019-05-25T03:29:06.124Z,32.20
2019-05-25T03:31:59.977Z,32.20
2019-05-25T03:34:54.971Z,32.20
2019-05-25T03:37:48.283Z,32.20
2019-05-25T03:40:42.963Z,32.20
2019-05-25T03:43:36.259Z,32.20
2019-05-25T03:46:29.612Z,32.30
2019-05-25T03:49:24.258Z,32.50
2019-05-25T03:52:17.333Z,32.60
2019-05-25T03:55:13.964Z,32.60
2019-05-25T03:58:08.622Z,32.60
2019-05-25T04:01:03.453Z,32.70
2019-05-25T04:03:57.082Z,32.70
2019-05-25T04:06:50.056Z,32.80
2019-05-25T04:09:43.029Z,32.80
2019-05-25T04:12:36.299Z,32.80
2019-05-25T04:15:30.542Z,32.70
2019-05-25T04:18:25.472Z,32.70
2019-05-25T04:21:31.880Z,32.60
2019-05-25T04:24:35.166Z,32.60
2019-05-25T04:27:38.036Z,32.60
2019-05-25T04:30:49.119Z,32.60
2019-05-25T04:33:47.496Z,32.60
2019-05-25T04:37:20.489Z,32.60
2019-05-25T04:40:18.155Z,32.60
2019-05-25T04:43:24.570Z,32.60
2019-05-25T04:46:22.085Z,32.60
2019-05-25T04:49:17.140Z,32.60
2019-05-25T04:56:20.591Z,32.60
2019-05-25T04:59:44.540Z,32.60
2019-05-25T05:02:22.479Z,32.60
2019-05-25T05:06:22.888Z,32.70
2019-05-25T05:09:02.425Z,32.70
2019-05-25T05:12:26.031Z,32.80
2019-05-25T05:15:21.098Z,32.90
2019-05-25T05:18:14.100Z,33.00
2019-05-25T05:21:07.386Z,33.10
2019-05-25T05:24:12.759Z,33.20
2019-05-25T05:27:06.674Z,33.10
2019-05-25T05:30:01.872Z,33.20
2019-05-25T05:32:55.340Z,33.20
2019-05-25T05:35:58.727Z,33.30
2019-05-25T05:39:02.684Z,33.20
2019-05-25T05:42:01.324Z,33.20
2019-05-25T05:46:03.411Z,33.30
2019-05-25T05:48:30.455Z,33.30
2019-05-25T05:51:27.931Z,33.30
2019-05-25T05:54:28.394Z,33.30
2019-05-25T05:58:03.783Z,33.40
2019-05-25T06:01:25.408Z,33.40
2019-05-25T06:04:30.180Z,33.60
2019-05-25T06:08:00.328Z,33.70
2019-05-25T06:11:42.669Z,33.70
2019-05-25T06:14:41.067Z,33.60
2019-05-25T06:17:43.591Z,33.50
2019-05-25T06:20:46.954Z,33.50
2019-05-25T06:23:41.396Z,33.50
2019-05-25T06:29:53.279Z,33.60
2019-05-25T06:32:47.652Z,33.60
2019-05-25T06:35:44.853Z,33.50
2019-05-25T06:38:38.443Z,33.60
2019-05-25T06:41:33.582Z,33.60
2019-05-25T06:45:40.546Z,33.50
2019-05-25T06:48:09.232Z,33.50
2019-05-25T06:54:31.356Z,33.60
2019-05-25T06:57:43.384Z,33.60
2019-05-25T07:00:41.848Z,33.60
2019-05-25T07:03:40.962Z,33.60
2019-05-25T07:06:39.240Z,33.70
2019-05-25T07:09:33.793Z,33.70
2019-05-25T07:12:34.448Z,33.70
2019-05-25T07:15:30.267Z,33.70
2019-05-25T07:18:24.954Z,33.70
2019-05-25T07:21:20.186Z,33.70
2019-05-25T07:24:16.212Z,33.80
2019-05-25T07:27:10.566Z,33.80
2019-05-25T07:30:28.721Z,33.80
2019-05-25T07:33:27.505Z,33.70
2019-05-25T07:36:24.080Z,33.70
2019-05-25T07:39:23.325Z,33.70
2019-05-25T07:42:22.030Z,33.70
2019-05-25T07:45:17.395Z,33.80
2019-05-25T07:48:13.504Z,33.80
2019-05-25T07:51:09.853Z,33.90
2019-05-25T07:55:25.649Z,33.90
2019-05-25T08:01:12.499Z,33.90
2019-05-25T08:04:07.475Z,34.00
2019-05-25T08:07:04.968Z,34.00
2019-05-25T08:10:00.939Z,34.00
2019-05-25T08:12:59.336Z,34.10
2019-05-25T08:15:57.495Z,34.00
2019-05-25T08:18:57.970Z,34.00
2019-05-25T08:21:54.535Z,34.10
2019-05-25T08:24:49.805Z,34.00
2019-05-25T08:27:42.923Z,34.10
2019-05-25T08:30:38.091Z,33.80
2019-05-25T08:33:36.615Z,33.70
2019-05-25T08:36:31.506Z,33.60
2019-05-25T08:39:34.332Z,33.70
2019-05-25T08:42:29.386Z,33.80
2019-05-25T08:45:26.002Z,33.90
2019-05-25T08:48:19.601Z,34.10
2019-05-25T08:51:13.741Z,34.10
2019-05-25T08:54:07.188Z,34.10
2019-05-25T08:57:16.108Z,34.10
2019-05-25T09:00:06.830Z,34.10
2019-05-25T09:03:04.716Z,34.10
2019-05-25T09:06:00.161Z,34.20
2019-05-25T09:08:53.944Z,34.20
2019-05-25T09:11:47.589Z,34.10
2019-05-25T09:14:41.349Z,34.20
2019-05-25T09:17:38.228Z,34.10
2019-05-25T09:20:32.314Z,34.20
2019-05-25T09:23:31.685Z,34.20
2019-05-25T09:26:30.103Z,34.30
2019-05-25T09:29:41.632Z,34.30
2019-05-25T09:36:09.441Z,34.30
2019-05-25T09:39:22.689Z,34.30
2019-05-25T09:42:15.887Z,34.30
2019-05-25T09:45:14.230Z,34.30
2019-05-25T09:48:09.509Z,34.30
2019-05-25T09:51:16.320Z,34.60
2019-05-25T09:54:08.240Z,34.50
2019-05-25T09:57:02.129Z,34.50
2019-05-25T09:59:55.914Z,34.50
2019-05-25T10:03:04.572Z,34.50
2019-05-25T10:06:13.319Z,34.40
2019-05-25T10:10:26.236Z,34.40
2019-05-25T10:12:49.775Z,34.40
2019-05-25T10:16:01.633Z,34.30
2019-05-25T10:19:11.522Z,34.30
2019-05-25T10:22:41.499Z,34.30
2019-05-25T10:25:37.344Z,34.40
2019-05-25T10:28:34.608Z,34.40
2019-05-25T10:31:32.843Z,34.40
2019-05-25T10:34:29.092Z,33.30
2019-05-25T10:37:29.105Z,33.20
2019-05-25T10:40:22.919Z,33.20
2019-05-25T10:43:16.319Z,33.10
2019-05-25T10:50:11.556Z,33.10
2019-05-25T10:53:07.740Z,33.10
2019-05-25T10:56:01.570Z,33.00
2019-05-25T10:59:01.444Z,32.90
2019-05-25T11:01:59.650Z,32.90
2019-05-25T11:04:57.162Z,32.90
2019-05-25T11:07:52.350Z,32.80
2019-05-25T11:10:45.201Z,32.80
2019-05-25T11:13:46.347Z,32.80
2019-05-25T11:16:39.802Z,32.80
2019-05-25T11:19:32.797Z,32.80
2019-05-25T11:22:47.565Z,32.80
2019-05-25T11:25:39.844Z,32.60
2019-05-25T11:28:33.403Z,32.70
2019-05-25T11:31:55.693Z,32.60
2019-05-25T11:34:42.488Z,32.70
2019-05-25T11:37:37.172Z,32.70
2019-05-25T11:40:44.664Z,32.60
2019-05-25T11:43:27.225Z,32.60
2019-05-25T11:46:20.866Z,32.60
2019-05-25T11:49:22.443Z,32.60
2019-05-25T11:52:10.229Z,32.60
2019-05-25T11:55:13.513Z,32.60
2019-05-25T11:58:14.225Z,32.60
2019-05-25T12:01:08.479Z,32.60
2019-05-25T12:04:04.681Z,32.80
2019-05-25T12:07:03.970Z,32.80
2019-05-25T12:10:06.557Z,32.70
2019-05-25T12:13:01.344Z,32.60
2019-05-25T12:15:57.152Z,32.70
2019-05-25T12:18:54.436Z,32.70
2019-05-25T12:21:46.995Z,32.70
2019-05-25T12:24:47.769Z,32.70
2019-05-25T12:27:41.984Z,32.60
2019-05-25T12:30:41.293Z,32.50
2019-05-25T12:33:36.769Z,32.50
2019-05-25T12:36:30.974Z,32.50
2019-05-25T12:39:26.690Z,32.50
2019-05-25T12:42:20.269Z,32.60
2019-05-25T12:45:14.917Z,32.50
2019-05-25T12:48:10.034Z,32.70
2019-05-25T12:51:03.636Z,33.20
2019-05-25T12:53:56.942Z,33.40
2019-05-25T12:56:50.245Z,33.40
2019-05-25T12:59:43.316Z,33.50
2019-05-25T13:02:36.127Z,33.50
2019-05-25T13:05:34.160Z,33.60
2019-05-25T13:08:24.078Z,33.60
2019-05-25T13:11:17.518Z,33.60
2019-05-25T13:14:14.722Z,33.50
2019-05-25T13:17:06.401Z,33.60
2019-05-25T13:20:00.199Z,33.60
2019-05-25T13:22:54.075Z,33.60
2019-05-25T13:25:47.190Z,33.60
2019-05-25T13:28:41.388Z,33.60
2019-05-25T13:31:36.310Z,33.70
2019-05-25T13:34:33.180Z,33.70
2019-05-25T13:37:27.713Z,33.70
2019-05-25T13:41:07.624Z,33.70
2019-05-25T13:43:49.692Z,33.70
2019-05-25T13:46:41.718Z,33.70
2019-05-25T13:49:37.878Z,33.70
2019-05-25T13:52:32.682Z,33.70
2019-05-25T13:55:27.235Z,33.70
2019-05-25T13:58:20.752Z,33.60
2019-05-25T14:01:27.455Z,33.50
2019-05-25T14:04:08.220Z,33.40
2019-05-25T14:07:01.286Z,33.40
2019-05-25T14:09:54.898Z,33.30
2019-05-25T14:12:49.845Z,33.30
2019-05-25T14:15:44.535Z,33.20
2019-05-25T14:18:38.228Z,33.20
2019-05-25T14:21:32.581Z,33.10
2019-05-25T14:24:26.070Z,33.10
2019-05-25T14:27:19.394Z,33.10
2019-05-25T14:30:15.195Z,33.10
2019-05-25T14:33:12.520Z,33.00
2019-05-25T14:36:07.605Z,33.00
2019-05-25T14:39:02.308Z,33.10
2019-05-25T14:41:58.007Z,33.00
2019-05-25T14:44:51.786Z,33.00
2019-05-25T14:47:45.466Z,33.10
2019-05-25T14:50:41.015Z,33.00
2019-05-25T14:53:36.729Z,33.00
2019-05-25T14:56:30.287Z,33.00
2019-05-25T14:59:25.302Z,33.00
2019-05-25T15:02:21.258Z,33.00
2019-05-25T15:05:14.649Z,33.00
2019-05-25T15:08:08.951Z,33.00
2019-05-25T15:11:02.828Z,33.00
2019-05-25T15:13:56.316Z,33.00
2019-05-25T15:16:50.730Z,33.00
2019-05-25T15:19:47.679Z,33.00
2019-05-25T15:22:46.487Z,33.00
2019-05-25T15:25:41.625Z,32.90
2019-05-25T15:28:37.084Z,32.90
2019-05-25T15:31:32.621Z,32.90
2019-05-25T15:34:29.241Z,32.90
2019-05-25T15:37:24.291Z,32.90
2019-05-25T15:40:17.964Z,32.90
2019-05-25T15:43:14.478Z,32.90
2019-05-25T15:46:10.465Z,33.00
2019-05-25T15:49:05.116Z,33.00
2019-05-25T15:51:58.851Z,33.00
2019-05-25T15:54:52.296Z,33.00
2019-05-25T15:57:48.410Z,32.90
2019-05-25T16:00:49.346Z,32.90
2019-05-25T16:03:45.415Z,32.90
2019-05-25T16:06:41.916Z,32.90
2019-05-25T16:09:37.685Z,32.90
2019-05-25T16:12:32.309Z,32.90
2019-05-25T16:15:33.483Z,32.90
2019-05-25T16:18:28.330Z,32.90
2019-05-25T16:21:23.479Z,32.90
2019-05-25T16:24:18.110Z,32.90
2019-05-25T16:27:11.893Z,32.90
2019-05-25T16:30:06.734Z,32.90
2019-05-25T16:33:11.689Z,32.90
2019-05-25T16:35:57.858Z,32.80
2019-05-25T16:38:48.979Z,32.90
2019-05-25T16:41:42.353Z,32.90
2019-05-25T16:44:35.462Z,32.90
2019-05-25T16:47:29.186Z,32.90
2019-05-25T16:50:22.794Z,32.80
2019-05-25T16:53:19.240Z,32.90
2019-05-25T16:56:13.400Z,32.90
2019-05-25T16:59:09.991Z,32.90
2019-05-25T17:02:04.960Z,32.90
2019-05-25T17:04:59.657Z,32.80
2019-05-25T17:07:56.253Z,32.90
2019-05-25T17:10:50.063Z,32.90
2019-05-25T17:13:43.946Z,32.90
2019-05-25T17:16:39.847Z,32.90
2019-05-25T17:19:33.772Z,32.90
2019-05-25T17:22:30.379Z,32.80
2019-05-25T17:25:24.485Z,32.90
2019-05-25T17:28:18.392Z,32.90
2019-05-25T17:31:13.493Z,32.80
2019-05-25T17:34:07.271Z,32.90
2019-05-25T17:37:01.639Z,32.90
2019-05-25T17:39:55.679Z,32.80
2019-05-25T17:42:49.468Z,32.90
2019-05-25T17:45:43.090Z,32.90
2019-05-25T17:48:37.377Z,32.90
2019-05-25T17:51:30.885Z,32.90
2019-05-25T17:54:25.992Z,32.80
2019-05-25T17:57:20.062Z,32.90
2019-05-25T18:00:14.562Z,32.90
2019-05-25T18:03:08.490Z,32.90
2019-05-25T18:06:02.024Z,32.90
2019-05-25T18:08:54.993Z,32.80
2019-05-25T18:11:48.839Z,32.90
2019-05-25T18:14:41.811Z,32.80
2019-05-25T18:17:34.736Z,32.90
2019-05-25T18:20:28.202Z,32.80
2019-05-25T18:23:23.186Z,32.90
2019-05-25T18:26:16.423Z,32.90
2019-05-25T18:29:09.731Z,32.80
2019-05-25T18:32:02.364Z,32.90
2019-05-25T18:34:55.835Z,32.90
2019-05-25T18:37:49.762Z,32.80
2019-05-25T18:40:43.528Z,32.80
2019-05-25T18:43:36.376Z,32.80
2019-05-25T18:46:30.482Z,32.80
2019-05-25T18:49:25.292Z,32.80
2019-05-25T18:52:20.548Z,32.90
2019-05-25T18:55:14.127Z,32.80
2019-05-25T18:58:07.578Z,32.80
2019-05-25T19:01:00.396Z,32.90
2019-05-25T19:03:53.124Z,32.80
2019-05-25T19:06:47.149Z,32.80
2019-05-25T19:09:41.378Z,32.80
2019-05-25T19:12:34.215Z,32.80
2019-05-25T19:15:27.284Z,32.90
2019-05-25T19:18:21.696Z,32.80
2019-05-25T19:21:15.704Z,32.80
2019-05-25T19:24:08.853Z,32.80
2019-05-25T19:27:02.368Z,32.80
2019-05-25T19:29:56.777Z,32.80
2019-05-25T19:32:49.851Z,32.90
2019-05-25T19:35:43.159Z,32.80
2019-05-25T19:38:36.279Z,32.90
2019-05-25T19:41:30.233Z,32.80
2019-05-25T19:44:23.374Z,32.80
2019-05-25T19:47:16.573Z,32.80
2019-05-25T19:50:10.324Z,32.80
2019-05-25T19:53:04.482Z,32.80
2019-05-25T19:55:58.368Z,32.80
2019-05-25T19:58:53.484Z,32.90
2019-05-25T20:01:48.593Z,32.80
2019-05-25T20:04:43.145Z,32.80
2019-05-25T20:07:36.592Z,32.80
2019-05-25T20:10:29.699Z,32.80
2019-05-25T20:13:23.549Z,32.80
2019-05-25T20:16:18.041Z,32.80
2019-05-25T20:19:11.981Z,32.80
2019-05-25T20:22:09.107Z,32.80
2019-05-25T20:25:00.739Z,32.80
2019-05-25T20:27:54.535Z,32.80
2019-05-25T20:30:49.244Z,32.80
2019-05-25T20:33:44.580Z,32.80
2019-05-25T20:36:39.341Z,32.80
2019-05-25T20:39:33.032Z,32.80
2019-05-25T20:42:26.545Z,32.80
2019-05-25T20:45:20.108Z,32.80
2019-05-25T20:48:14.251Z,32.80
2019-05-25T20:51:08.149Z,32.80
2019-05-25T20:54:02.352Z,32.90
2019-05-25T20:56:56.794Z,32.80
2019-05-25T20:59:52.281Z,32.80
2019-05-25T21:02:45.406Z,32.80
2019-05-25T21:05:49.623Z,32.80
2019-05-25T21:08:33.888Z,32.80
2019-05-25T21:11:27.020Z,32.80
2019-05-25T21:14:19.802Z,32.80
2019-05-25T21:17:13.358Z,32.90
2019-05-25T21:20:05.956Z,32.80
2019-05-25T21:23:02.341Z,32.90
2019-05-25T21:25:56.028Z,32.80
2019-05-25T21:28:48.913Z,32.90
2019-05-25T21:31:42.603Z,32.90
2019-05-25T21:34:35.475Z,32.80
2019-05-25T21:37:28.961Z,32.80
2019-05-25T21:40:21.962Z,32.80
2019-05-25T21:43:16.311Z,32.80
2019-05-25T21:46:10.273Z,32.80
2019-05-25T21:49:03.684Z,32.80
2019-05-25T21:51:56.609Z,32.80
2019-05-25T21:54:50.058Z,32.80
2019-05-25T21:57:43.064Z,32.90
2019-05-25T22:00:39.044Z,32.80
2019-05-25T22:03:32.638Z,32.80
2019-05-25T22:06:26.230Z,32.80
2019-05-25T22:09:20.483Z,32.80
2019-05-25T22:12:13.713Z,32.90
2019-05-25T22:15:06.888Z,32.80
2019-05-25T22:18:00.575Z,32.90
2019-05-25T22:20:53.794Z,32.80
2019-05-25T22:23:47.307Z,32.90
2019-05-25T22:26:41.984Z,32.90
2019-05-25T22:29:35.632Z,32.90
2019-05-25T22:32:28.654Z,32.80
2019-05-25T22:35:21.964Z,32.80
2019-05-25T22:38:15.646Z,32.80
2019-05-25T22:41:09.141Z,32.90
2019-05-25T22:44:02.213Z,32.80
2019-05-25T22:46:55.026Z,32.80
2019-05-25T22:49:48.372Z,32.80
2019-05-25T22:52:41.639Z,32.90
2019-05-25T22:55:35.000Z,32.80
2019-05-25T22:58:28.437Z,32.90
2019-05-25T23:01:21.672Z,32.80
2019-05-25T23:04:15.161Z,32.80
2019-05-25T23:07:10.215Z,32.80
2019-05-25T23:10:02.927Z,32.80
2019-05-25T23:12:58.283Z,32.80
2019-05-25T23:15:53.267Z,32.80
2019-05-25T23:18:47.251Z,32.80
2019-05-25T23:21:40.171Z,32.80
2019-05-25T23:24:33.042Z,32.80
2019-05-25T23:27:26.075Z,32.90
2019-05-25T23:30:20.314Z,32.80
2019-05-25T23:33:13.700Z,32.80
2019-05-25T23:36:06.643Z,32.80
2019-05-25T23:38:59.865Z,32.80
2019-05-25T23:41:52.864Z,32.80
2019-05-25T23:44:46.559Z,32.80
2019-05-25T23:47:40.018Z,32.80
2019-05-25T23:50:33.249Z,32.80
2019-05-25T23:53:26.661Z,32.80
2019-05-25T23:56:20.174Z,32.90
2019-05-25T23:59:14.027Z,32.80
